Time;durP1;ratioP1;P1;durP2;ratioP2;P2;SDS_P1;SDS_P2;PMS_P1;PMS_P2;Temp;Humidity;BMP_temperature;BMP_pressure;BME280_temperature;BME280_humidity;BME280_pressure;Samples;Min_cycle;Max_cycle;Signal;HPM_P1;HPM_P2
2021/03/11 00:01:21;;;;;;;;;58.00;46.00;;;;;4.99;31.50;99192.84;6230634;28;125539;-62
2021/03/11 00:04:22;;;;;;;;;58.60;45.60;;;;;4.80;31.20;99154.09;6232092;27;125370;-62
2021/03/11 00:07:24;;;;;;;;;56.60;45.60;;;;;4.98;31.39;99178.69;6232184;27;127239;-62
2021/03/11 00:10:26;;;;;;;;;56.00;45.00;;;;;4.89;31.40;99161.03;6230281;28;125214;-62
2021/03/11 00:13:27;;;;;;;;;56.80;46.00;;;;;4.89;31.00;99160.22;6234089;27;124524;-62
2021/03/11 00:16:29;;;;;;;;;57.00;45.75;;;;;4.61;31.29;99102.00;6236400;27;126633;-62
2021/03/11 00:19:32;;;;;;;;;57.75;46.00;;;;;4.66;31.92;99120.97;6234493;27;125635;-62
2021/03/11 00:22:33;;;;;;;;;58.00;46.00;;;;;4.72;32.33;99130.13;6235925;27;124583;-62
2021/03/11 00:25:36;;;;;;;;;59.00;45.00;;;;;4.22;32.54;99078.06;6233668;28;126545;-62
2021/03/11 00:28:37;;;;;;;;;56.25;45.75;;;;;4.41;32.86;99115.97;6234626;27;127283;-62
2021/03/11 00:31:39;;;;;;;;;57.80;45.00;;;;;4.45;32.51;99134.13;6219928;28;125857;-62
2021/03/11 00:34:40;;;;;;;;;51.60;42.60;;;;;4.29;32.23;99108.41;6236064;27;126535;-62
2021/03/11 00:37:42;;;;;;;;;53.75;44.00;;;;;4.44;31.82;99131.66;6236401;27;125492;-62
2021/03/11 00:40:44;;;;;;;;;52.50;43.25;;;;;4.03;31.90;99059.84;6235761;27;125028;-62
2021/03/11 00:43:45;;;;;;;;;52.00;43.00;;;;;4.46;32.05;99116.28;6224184;28;122800;-61
2021/03/11 00:46:47;;;;;;;;;52.00;41.00;;;;;4.46;32.13;99116.28;6234775;27;128033;-62
2021/03/11 00:49:49;;;;;;;;;50.00;41.50;;;;;4.41;31.64;99115.97;6233216;28;125844;-61
2021/03/11 00:52:51;;;;;;;;;54.00;41.80;;;;;4.41;31.50;99122.16;6230039;28;124689;-61
2021/03/11 00:55:53;;;;;;;;;51.40;41.00;;;;;4.36;31.53;99111.19;6233184;28;125169;-61
2021/03/11 00:58:55;;;;;;;;;54.00;42.00;;;;;4.40;31.97;99107.13;6233176;28;125332;-62
2021/03/11 01:01:56;;;;;;;;;53.25;43.00;;;;;4.33;31.91;99099.03;6235136;27;125324;-62
2021/03/11 01:04:58;;;;;;;;;52.00;41.00;;;;;4.06;32.20;99054.16;6235493;27;125165;-61
2021/03/11 01:08:00;;;;;;;;;53.00;42.50;;;;;4.36;32.29;99108.50;6233565;28;126715;-61
2021/03/11 01:11:02;;;;;;;;;52.60;41.20;;;;;4.35;32.26;99104.16;6229317;28;125519;-61
2021/03/11 01:14:04;;;;;;;;;50.00;39.00;;;;;4.32;32.56;99099.19;6234657;27;126379;-62
2021/03/11 01:17:06;;;;;;;;;47.75;38.75;;;;;4.29;32.38;99100.41;6232693;27;126349;-61
2021/03/11 01:20:14;;;;;;;;;50.80;39.60;;;;;4.26;32.17;99108.72;6227453;27;126967;-62
2021/03/11 01:23:16;;;;;;;;;47.00;39.00;;;;;4.20;32.37;99117.44;6209837;28;126832;-61
2021/03/11 01:26:17;;;;;;;;;47.40;37.80;;;;;4.34;31.97;99100.69;6209194;28;125213;-62
2021/03/11 01:29:19;;;;;;;;;49.50;39.50;;;;;4.36;31.60;99106.66;6209761;28;126823;-62
2021/03/11 01:32:21;;;;;;;;;48.50;39.00;;;;;4.33;31.86;99095.53;6211308;28;125212;-62
2021/03/11 01:35:22;;;;;;;;;49.00;40.60;;;;;3.88;32.38;99024.25;6216729;28;125117;-61
2021/03/11 01:38:24;;;;;;;;;49.00;39.00;;;;;4.23;32.96;99098.44;6222735;27;126228;-62
2021/03/11 01:41:26;;;;;;;;;51.00;40.40;;;;;4.13;33.25;99099.66;6210142;28;127139;-62
2021/03/11 01:44:27;;;;;;;;;48.00;39.00;;;;;4.02;33.38;99092.88;6229472;28;125106;-62
2021/03/11 01:47:29;;;;;;;;;51.50;41.00;;;;;4.00;33.40;99081.56;6228430;27;126841;-61
2021/03/11 01:50:30;;;;;;;;;52.25;42.25;;;;;3.97;33.59;99070.38;6207476;28;125085;-62
2021/03/11 01:53:32;;;;;;;;;53.00;42.00;;;;;3.58;33.73;99022.41;6207799;28;126945;-61
2021/03/11 01:56:33;;;;;;;;;55.67;44.00;;;;;3.35;34.10;98982.38;6209492;28;125369;-61
2021/03/11 01:59:36;;;;;;;;;53.40;42.40;;;;;3.78;34.45;99060.97;6207764;28;126487;-62
2021/03/11 02:02:43;;;;;;;;;53.60;44.00;;;;;3.75;34.35;99062.19;6231008;28;126283;-62
2021/03/11 02:05:44;;;;;;;;;55.00;44.00;;;;;3.46;33.87;99011.31;6216794;28;124847;-61
2021/03/11 02:08:46;;;;;;;;;51.00;39.50;;;;;3.56;33.14;99043.09;6209517;28;126561;-62
2021/03/11 02:12:26;;;;;;;;;50.00;41.00;;;;;3.70;33.38;99056.53;6210124;28;125441;-61
2021/03/11 02:15:33;;;;;;;;;49.60;40.00;;;;;3.62;33.54;99051.22;6178139;28;126342;-61
2021/03/11 02:18:51;;;;;;;;;52.40;41.60;;;;;3.69;33.82;99043.38;6223602;28;125052;-62
2021/03/11 02:22:11;;;;;;;;;50.25;40.75;;;;;3.63;33.57;99038.72;6220484;28;126372;-62
2021/03/11 02:25:39;;;;;;;;;50.33;41.00;;;;;3.53;33.54;99030.94;6233221;28;125827;-62
2021/03/11 02:28:53;;;;;;;;;50.00;40.00;;;;;3.52;33.91;99031.13;6234543;27;126234;-62
2021/03/11 02:31:57;;;;;;;;;45.00;36.60;;;;;3.42;33.88;99029.47;6233840;28;125948;-61
2021/03/11 02:35:03;;;;;;;;;48.75;39.00;;;;;3.41;33.60;99030.50;6234406;27;126004;-62
2021/03/11 02:38:06;;;;;;;;;46.00;37.00;;;;;3.38;33.76;99016.66;6232077;27;127892;-62
2021/03/11 02:41:10;;;;;;;;;48.60;39.60;;;;;3.14;33.54;98980.31;6234903;27;125177;-62
2021/03/11 02:44:13;;;;;;;;;47.00;37.60;;;;;3.43;33.16;99014.31;6209827;28;126455;-62
2021/03/11 02:47:14;;;;;;;;;46.60;38.60;;;;;3.41;34.03;99011.84;6209335;28;126446;-62
2021/03/11 02:50:17;;;;;;;;;47.25;38.00;;;;;3.42;34.16;99015.34;6217033;28;126373;-61
2021/03/11 02:53:20;;;;;;;;;48.00;36.50;;;;;3.43;33.60;99001.00;6209161;28;126828;-62
2021/03/11 02:56:22;;;;;;;;;45.60;36.60;;;;;3.37;34.09;98986.53;6221613;28;125246;-62
2021/03/11 02:59:25;;;;;;;;;47.50;38.50;;;;;3.41;34.30;98993.19;6234183;27;126339;-62
2021/03/11 03:02:27;;;;;;;;;48.20;37.80;;;;;3.37;34.31;98985.72;6234097;27;124687;-62
2021/03/11 03:05:29;;;;;;;;;44.50;35.50;;;;;3.09;34.21;98934.69;6232425;28;126683;-62
2021/03/11 03:08:32;;;;;;;;;46.40;37.00;;;;;3.35;34.47;98966.41;6234012;27;126718;-61
2021/03/11 03:11:37;;;;;;;;;45.20;36.00;;;;;3.29;34.25;98959.09;6220228;27;125015;-62
2021/03/11 03:14:40;;;;;;;;;44.25;36.00;;;;;3.36;33.98;98971.56;6208649;28;123389;-61
2021/03/11 03:17:45;;;;;;;;;45.50;36.00;;;;;3.35;33.92;98966.41;6207630;28;124773;-62
2021/03/11 03:20:47;;;;;;;;;45.00;35.40;;;;;3.29;33.75;98967.09;6209481;28;124608;-61
2021/03/11 03:23:50;;;;;;;;;45.40;36.40;;;;;3.43;33.58;98975.19;6207494;28;125154;-61
2021/03/11 03:26:51;;;;;;;;;46.60;35.40;;;;;3.48;33.30;98979.97;6224532;28;125478;-62
2021/03/11 03:29:53;;;;;;;;;37.00;33.00;;;;;3.43;32.92;98975.19;6233613;27;125596;-61
2021/03/11 03:32:54;;;;;;;;;39.00;33.20;;;;;2.97;33.02;98904.97;6228500;27;125436;-62
2021/03/11 03:35:56;;;;;;;;;44.40;36.00;;;;;3.47;33.07;98971.16;6208605;28;126993;-61
2021/03/11 03:38:58;;;;;;;;;41.00;34.80;;;;;3.57;33.00;98962.13;6208048;28;127591;-61
2021/03/11 03:41:59;;;;;;;;;44.00;35.00;;;;;3.59;33.42;98958.28;6211092;28;124290;-62
2021/03/11 03:45:04;;;;;;;;;40.50;33.00;;;;;3.59;32.90;98952.09;6224736;28;126249;-61
2021/03/11 03:48:10;;;;;;;;;39.00;34.00;;;;;3.51;33.01;98930.84;6231914;28;124898;-62
2021/03/11 03:51:15;;;;;;;;;41.25;35.00;;;;;3.57;33.57;98943.47;6223300;28;125081;-62
2021/03/11 03:54:24;;;;;;;;;43.00;34.50;;;;;2.81;33.47;98822.50;6208912;27;124707;-62
2021/03/11 03:57:26;;;;;;;;;42.40;34.80;;;;;3.49;33.69;98942.50;6208912;28;124934;-62
2021/03/11 04:00:28;;;;;;;;;42.00;35.20;;;;;3.16;33.59;98886.91;6207068;28;125229;-62
2021/03/11 04:03:31;;;;;;;;;42.60;35.40;;;;;3.19;33.13;98884.72;6202825;28;126112;-61
2021/03/11 04:06:36;;;;;;;;;43.40;35.60;;;;;3.52;33.43;98935.97;6210872;28;123840;-62
2021/03/11 04:09:39;;;;;;;;;41.00;33.00;;;;;3.50;33.49;98932.69;6233118;27;126177;-62
2021/03/11 04:12:43;;;;;;;;;46.00;35.00;;;;;3.49;33.86;98939.00;6232872;27;126601;-62
2021/03/11 04:15:45;;;;;;;;;43.40;36.00;;;;;3.49;33.52;98936.34;6231971;28;124001;-62
2021/03/11 04:18:47;;;;;;;;;43.00;35.50;;;;;2.98;33.77;98852.53;6224904;28;125057;-62
2021/03/11 04:21:48;;;;;;;;;45.00;37.00;;;;;3.40;34.23;98932.06;6230921;28;123953;-62
2021/03/11 04:24:50;;;;;;;;;46.40;36.00;;;;;3.29;34.32;98922.63;6230500;28;127675;-61
2021/03/11 04:27:52;;;;;;;;;43.20;36.20;;;;;3.36;34.47;98923.59;6231114;28;126469;-61
2021/03/11 04:30:54;;;;;;;;;42.50;35.25;;;;;3.12;34.56;98901.56;6222487;27;126541;-62
2021/03/11 04:33:57;;;;;;;;;44.60;36.00;;;;;3.30;34.31;98940.28;6207628;28;127108;-62
2021/03/11 04:36:59;;;;;;;;;47.00;37.00;;;;;3.25;34.57;98939.97;6205607;28;124012;-62
2021/03/11 04:40:01;;;;;;;;;48.00;38.60;;;;;3.22;34.50;98945.66;6207776;28;127381;-61
2021/03/11 04:43:03;;;;;;;;;43.80;35.60;;;;;3.21;34.38;98940.50;6211442;28;125266;-62
2021/03/11 04:46:05;;;;;;;;;46.00;37.40;;;;;2.90;34.49;98888.00;6231072;28;124311;-61
2021/03/11 04:49:07;;;;;;;;;44.00;35.20;;;;;2.94;34.84;98893.81;6226886;27;126304;-62
2021/03/11 04:52:10;;;;;;;;;46.80;38.00;;;;;2.95;35.19;98908.81;6222025;28;124921;-62
2021/03/11 04:55:12;;;;;;;;;47.00;36.00;;;;;3.13;35.07;98916.56;6232402;27;125560;-61
2021/03/11 04:58:14;;;;;;;;;52.00;40.40;;;;;3.10;35.50;98906.25;6230856;28;126416;-62
2021/03/11 05:01:30;;;;;;;;;49.00;39.00;;;;;2.83;35.11;98852.44;6220133;28;126327;-62
2021/03/11 05:04:33;;;;;;;;;49.75;40.50;;;;;3.10;35.75;98899.06;6218870;28;123010;-62
2021/03/11 05:07:34;;;;;;;;;51.00;41.33;;;;;3.13;35.50;98908.56;6236055;27;125348;-62
2021/03/11 05:10:37;;;;;;;;;53.33;42.00;;;;;2.76;36.13;98846.16;6233569;28;126202;-62
2021/03/11 05:13:41;;;;;;;;;52.00;41.00;;;;;3.17;35.88;98900.06;6234419;28;126819;-62
2021/03/11 05:16:42;;;;;;;;;53.40;43.00;;;;;3.00;35.95;98871.81;6230976;27;125362;-61
2021/03/11 05:19:44;;;;;;;;;56.50;43.00;;;;;3.23;36.63;98904.66;6216312;28;126621;-61
2021/03/11 05:22:45;;;;;;;;;57.80;45.00;;;;;3.27;36.75;98898.00;6209251;28;126445;-61
2021/03/11 05:25:47;;;;;;;;;54.60;44.00;;;;;3.35;36.37;98902.44;6233814;28;125277;-62
2021/03/11 05:28:49;;;;;;;;;55.00;44.00;;;;;3.29;36.49;98877.31;6234133;28;126516;-61
2021/03/11 05:31:50;;;;;;;;;56.80;45.20;;;;;3.51;36.69;98891.69;6235422;27;125150;-62
2021/03/11 05:34:52;;;;;;;;;59.20;47.00;;;;;3.42;37.01;98853.59;6229556;27;127267;-61
2021/03/11 05:37:53;;;;;;;;;58.40;46.00;;;;;3.73;37.09;98880.19;6228766;28;127185;-62
2021/03/11 05:40:55;;;;;;;;;60.40;45.80;;;;;3.70;37.00;98845.91;6234082;27;126396;-62
2021/03/11 07:04:03;;;;;;;;;73.80;62.40;;;;;11.82;26.26;98778.28;6236852;27;97226;-61
2021/03/11 07:07:18;;;;;;;;;61.50;48.25;;;;;12.36;25.65;98769.03;6254736;27;126289;-60
2021/03/11 07:10:27;;;;;;;;;50.20;41.00;;;;;12.56;24.82;98724.31;6226562;27;125985;-60
2021/03/11 07:13:40;;;;;;;;;64.00;49.00;;;;;13.51;24.21;98752.72;6269509;27;126756;-62
2021/03/11 07:16:41;;;;;;;;;60.00;47.60;;;;;14.15;22.75;98760.31;6263989;27;126134;-62
2021/03/11 07:19:46;;;;;;;;;57.40;45.40;;;;;15.14;21.67;98749.47;6254818;27;125217;-62
2021/03/11 07:23:23;;;;;;;;;58.67;46.00;;;;;16.49;20.67;98740.03;6230396;27;126066;-60
2021/03/11 07:26:24;;;;;;;;;57.40;46.00;;;;;17.40;18.94;98723.28;6118530;28;123338;-60
2021/03/11 07:29:26;;;;;;;;;55.20;44.00;;;;;18.27;18.22;98731.25;6142409;28;127661;-60
2021/03/11 07:32:29;;;;;;;;;52.00;42.40;;;;;19.21;16.90;98713.16;6150523;28;126324;-60
2021/03/11 07:35:32;;;;;;;;;50.00;41.00;;;;;19.73;16.31;98712.59;6150699;28;125104;-60
2021/03/11 07:38:36;;;;;;;;;44.60;35.80;;;;;20.12;14.80;98720.75;6149654;28;124773;-60
2021/03/11 07:41:37;;;;;;;;;45.00;36.00;;;;;20.92;15.08;98727.28;6151436;28;126610;-61
2021/03/11 07:44:40;;;;;;;;;46.00;36.00;;;;;21.26;14.52;98699.72;6150847;28;126397;-61
2021/03/11 07:47:43;;;;;;;;;43.00;35.00;;;;;21.62;13.98;98700.03;6152307;28;126944;-61
2021/03/11 07:50:45;;;;;;;;;39.80;34.80;;;;;21.14;13.92;98697.44;6154035;28;127668;-62
2021/03/11 07:53:46;;;;;;;;;40.50;35.00;;;;;20.39;14.04;98669.03;6152868;28;126268;-60
2021/03/11 07:56:52;;;;;;;;;40.60;35.00;;;;;19.49;15.06;98698.00;6137704;28;127201;-62
2021/03/11 07:59:54;;;;;;;;;40.80;32.80;;;;;19.20;15.18;98684.22;6195401;27;124791;-63
2021/03/11 08:03:01;;;;;;;;;42.40;34.00;;;;;18.27;15.23;98703.94;6263442;27;125493;-61
2021/03/11 08:06:20;;;;;;;;;44.20;36.00;;;;;18.29;15.81;98688.09;6244969;27;126809;-60
2021/03/11 08:09:35;;;;;;;;;35.60;32.00;;;;;18.35;15.76;98718.94;6237965;27;125924;-62
2021/03/11 08:12:38;;;;;;;;;37.60;33.00;;;;;17.41;15.86;98684.03;6233929;27;124992;-62
2021/03/11 08:15:40;;;;;;;;;41.00;33.00;;;;;17.68;16.33;98703.72;6254110;27;127237;-62
2021/03/11 08:18:46;;;;;;;;;36.00;31.60;;;;;17.78;16.16;98709.19;6253678;27;126164;-62
2021/03/11 08:21:47;;;;;;;;;37.75;32.25;;;;;18.03;15.97;98687.31;6221993;27;126826;-62
2021/03/11 08:24:49;;;;;;;;;37.00;32.75;;;;;18.32;15.61;98654.00;6236405;27;127719;-62
2021/03/11 08:27:52;;;;;;;;;37.50;32.50;;;;;18.74;15.55;98670.78;6253405;27;126388;-62
2021/03/11 08:30:56;;;;;;;;;37.00;32.20;;;;;18.92;14.92;98670.16;6253058;27;125271;-60
2021/03/11 08:33:57;;;;;;;;;35.60;31.00;;;;;18.86;14.90;98643.94;6260184;27;125936;-62
2021/03/11 08:37:29;;;;;;;;;34.60;31.60;;;;;19.38;15.00;98667.16;6248592;27;125632;-60
2021/03/11 08:40:36;;;;;;;;;37.00;32.00;;;;;19.44;15.02;98666.06;6223249;27;124680;-60
2021/03/11 08:43:37;;;;;;;;;45.60;37.60;;;;;19.74;16.00;98663.06;6252648;27;125948;-60
2021/03/11 08:46:51;;;;;;;;;48.00;39.00;;;;;20.12;15.72;98623.03;6257159;27;124746;-60
2021/03/11 08:49:53;;;;;;;;;51.40;41.00;;;;;20.91;15.87;98651.69;6257976;27;128165;-62
2021/03/11 08:52:54;;;;;;;;;46.25;39.00;;;;;21.49;15.52;98634.97;6256493;27;127619;-62
2021/03/11 08:55:56;;;;;;;;;49.60;39.60;;;;;21.95;14.88;98635.03;6250320;27;125984;-62
2021/03/11 08:59:08;;;;;;;;;38.40;33.40;;;;;22.24;13.77;98634.75;6273024;27;127349;-62
2021/03/11 09:02:32;;;;;;;;;32.50;28.00;;;;;21.55;13.03;98622.81;6258118;27;127134;-60
2021/03/11 09:05:47;;;;;;;;;33.00;30.00;;;;;21.22;13.47;98615.63;6265625;27;125876;-60
2021/03/11 09:08:53;;;;;;;;;30.40;29.40;;;;;20.63;13.29;98614.22;6255763;27;127867;-61
2021/03/11 09:11:56;;;;;;;;;27.60;26.00;;;;;20.22;13.63;98606.50;6254256;27;125910;-61
2021/03/11 09:14:59;;;;;;;;;30.60;28.40;;;;;19.61;13.87;98605.47;6257397;27;126551;-60
2021/03/11 09:18:00;;;;;;;;;30.00;29.00;;;;;18.98;14.09;98598.00;6256818;27;126142;-61
2021/03/11 09:21:04;;;;;;;;;28.00;25.00;;;;;17.51;14.39;98543.13;6255799;27;126676;-61
2021/03/11 09:24:16;;;;;;;;;29.00;26.50;;;;;16.32;15.29;98570.75;6259847;27;126620;-60
2021/03/11 09:27:17;;;;;;;;;25.00;24.00;;;;;16.44;15.73;98588.47;6240318;27;124985;-60
2021/03/11 09:30:29;;;;;;;;;27.00;26.33;;;;;16.16;15.85;98588.91;6255609;27;125453;-61
2021/03/11 09:33:37;;;;;;;;;27.80;24.80;;;;;16.33;15.83;98580.50;6253101;27;126560;-61
2021/03/11 09:36:47;;;;;;;;;27.40;25.40;;;;;16.26;15.85;98569.91;6251386;27;127467;-60
2021/03/11 09:39:58;;;;;;;;;26.20;24.00;;;;;16.26;15.95;98575.34;6257193;27;124981;-60
2021/03/11 09:43:24;;;;;;;;;28.60;26.40;;;;;16.06;16.00;98564.38;6235281;27;125169;-61
2021/03/11 09:46:26;;;;;;;;;31.00;27.60;;;;;16.15;15.85;98567.38;6246942;27;126445;-60
2021/03/11 09:49:27;;;;;;;;;26.00;25.00;;;;;15.74;16.13;98566.34;6250328;27;126327;-60
2021/03/11 09:52:29;;;;;;;;;28.80;25.00;;;;;15.35;16.24;98561.16;6256328;27;127567;-60
2021/03/11 09:55:32;;;;;;;;;26.20;24.20;;;;;15.18;16.47;98549.66;6254540;27;126549;-60
2021/03/11 09:58:35;;;;;;;;;25.50;23.50;;;;;15.21;16.32;98540.16;6251659;27;126823;-60
2021/03/11 10:01:38;;;;;;;;;29.00;25.60;;;;;15.16;16.74;98519.22;6252668;27;126561;-60
2021/03/11 10:04:40;;;;;;;;;25.00;23.00;;;;;15.43;16.78;98516.41;6257442;27;127008;-60
2021/03/11 10:07:42;;;;;;;;;28.40;26.00;;;;;15.36;16.79;98507.66;6238292;27;125236;-60
2021/03/11 10:11:00;;;;;;;;;27.40;23.40;;;;;15.68;16.12;98500.31;6256641;27;126681;-60
2021/03/11 10:14:02;;;;;;;;;23.75;22.75;;;;;16.06;16.03;98488.22;6256393;27;125615;-60
2021/03/11 10:17:06;;;;;;;;;25.80;24.00;;;;;16.19;15.91;98485.00;6239905;27;127705;-60
2021/03/11 10:20:28;;;;;;;;;26.00;25.00;;;;;16.09;15.58;98470.56;6254791;27;126219;-60
2021/03/11 10:23:30;;;;;;;;;23.80;22.00;;;;;15.41;16.18;98464.25;6242536;27;125989;-60
2021/03/11 10:26:35;;;;;;;;;24.00;22.40;;;;;15.57;16.22;98460.56;6256547;27;126437;-60
2021/03/11 10:29:36;;;;;;;;;26.50;23.00;;;;;15.59;16.66;98445.63;6255252;27;126049;-60
2021/03/11 10:32:40;;;;;;;;;30.40;25.40;;;;;15.40;17.41;98438.16;6239331;27;128259;-60
2021/03/11 10:35:44;;;;;;;;;26.40;24.60;;;;;14.70;17.95;98433.91;6255406;27;124558;-60
2021/03/11 10:39:07;;;;;;;;;25.40;24.60;;;;;14.78;18.23;98421.75;6252355;27;126187;-60
2021/03/11 10:42:08;;;;;;;;;26.60;23.60;;;;;14.67;18.48;98415.41;6256675;27;126105;-60
2021/03/11 10:45:13;;;;;;;;;25.00;24.00;;;;;13.96;19.55;98422.03;6222871;27;126460;-60
2021/03/11 10:48:15;;;;;;;;;28.00;25.00;;;;;13.62;19.87;98413.25;6255310;27;125956;-60
2021/03/11 10:51:18;;;;;;;;;25.00;24.00;;;;;13.16;20.38;98418.06;6238072;27;125280;-60
2021/03/11 10:54:30;;;;;;;;;25.40;23.00;;;;;13.02;20.36;98408.66;6269780;27;126097;-60
2021/03/11 10:57:36;;;;;;;;;24.60;21.60;;;;;13.32;20.63;98406.41;6255778;27;124688;-61
2021/03/11 11:00:38;;;;;;;;;27.40;24.00;;;;;12.65;20.95;98364.28;6221396;27;125905;-60
2021/03/11 11:03:41;;;;;;;;;26.25;25.50;;;;;13.18;20.74;98380.75;6233905;27;127624;-61
2021/03/11 11:06:43;;;;;;;;;25.40;23.80;;;;;13.32;20.57;98379.31;6248849;27;126212;-61
2021/03/11 11:09:45;;;;;;;;;25.40;24.60;;;;;13.53;20.35;98376.88;6254936;27;127668;-61
2021/03/11 11:12:48;;;;;;;;;25.00;24.00;;;;;13.40;20.15;98367.22;6255887;27;126317;-61
2021/03/11 11:15:50;;;;;;;;;25.00;22.00;;;;;13.50;19.77;98396.31;6264897;27;126356;-61
2021/03/11 11:18:51;;;;;;;;;21.00;19.40;;;;;13.32;20.36;98322.47;6247410;27;127336;-61
2021/03/11 11:21:53;;;;;;;;;24.40;23.00;;;;;13.57;20.08;98346.31;6227040;27;125433;-61
2021/03/11 11:24:54;;;;;;;;;20.60;19.00;;;;;13.77;19.91;98329.47;6253937;27;125547;-61
2021/03/11 11:27:57;;;;;;;;;25.40;23.40;;;;;13.73;19.75;98337.25;6253561;27;125461;-61
2021/03/11 11:30:58;;;;;;;;;23.00;21.00;;;;;13.70;20.40;98323.41;6231528;27;124213;-61
2021/03/11 11:34:00;;;;;;;;;23.40;21.00;;;;;13.67;20.02;98322.03;6235298;27;125599;-61
2021/03/11 11:37:02;;;;;;;;;23.20;21.20;;;;;13.68;19.59;98290.38;6229911;27;125613;-61
2021/03/11 11:40:04;;;;;;;;;19.00;18.00;;;;;13.79;19.09;98306.44;6250180;27;126853;-61
2021/03/11 11:43:05;;;;;;;;;21.00;20.00;;;;;13.85;19.62;98304.59;6245326;27;127336;-61
2021/03/11 11:46:06;;;;;;;;;22.40;20.00;;;;;13.98;19.30;98300.63;6228178;28;125854;-61
2021/03/11 11:49:08;;;;;;;;;20.00;19.00;;;;;13.82;19.39;98289.69;6238022;27;127283;-61
2021/03/11 11:52:12;;;;;;;;;19.00;17.80;;;;;13.60;19.33;98245.59;6248663;27;126159;-61
2021/03/11 11:55:13;;;;;;;;;21.80;19.20;;;;;13.91;19.27;98284.63;6256919;27;124942;-61
2021/03/11 11:58:16;;;;;;;;;19.50;17.50;;;;;13.92;19.51;98288.13;6253764;27;127909;-61
2021/03/11 12:01:18;;;;;;;;;21.40;19.00;;;;;13.71;19.02;98260.88;6245973;27;126419;-60
2021/03/11 12:04:19;;;;;;;;;19.00;16.00;;;;;13.31;19.22;98236.91;6232832;27;125407;-61
2021/03/11 12:07:21;;;;;;;;;16.60;15.00;;;;;13.63;19.29;98283.00;6255692;27;128142;-61
2021/03/11 12:10:23;;;;;;;;;18.25;16.25;;;;;12.94;19.39;98147.47;6258535;27;126191;-61
2021/03/11 12:13:24;;;;;;;;;17.00;16.00;;;;;13.56;19.49;98254.47;6257474;27;127337;-61
2021/03/11 12:16:26;;;;;;;;;19.00;17.50;;;;;13.75;19.45;98248.44;6259317;27;126844;-61
2021/03/11 12:19:28;;;;;;;;;20.00;18.00;;;;;13.59;19.73;98262.06;6259538;27;125141;-61
2021/03/11 12:22:29;;;;;;;;;19.25;18.25;;;;;13.55;20.02;98234.69;6259443;27;127379;-61
2021/03/11 12:25:30;;;;;;;;;17.40;16.40;;;;;13.29;19.98;98219.28;6259925;27;127776;-61
2021/03/11 12:28:32;;;;;;;;;17.40;16.00;;;;;13.16;20.48;98227.78;6230948;27;125976;-60
2021/03/11 12:31:33;;;;;;;;;20.40;16.00;;;;;13.10;20.71;98235.00;6257765;27;126556;-60
2021/03/11 12:34:35;;;;;;;;;20.00;17.40;;;;;13.00;20.72;98235.72;6240271;27;126332;-61
2021/03/11 12:37:37;;;;;;;;;20.00;16.00;;;;;13.04;20.92;98236.03;6240019;27;126734;-61
2021/03/11 12:40:40;;;;;;;;;17.50;16.50;;;;;13.13;20.96;98239.13;6254802;27;126341;-61
2021/03/11 12:43:41;;;;;;;;;22.40;19.00;;;;;13.11;20.97;98249.34;6254842;27;128349;-61
2021/03/11 12:46:43;;;;;;;;;20.00;16.60;;;;;13.16;20.84;98244.03;6237302;27;125909;-61
2021/03/11 12:49:45;;;;;;;;;17.00;16.00;;;;;13.21;22.22;98261.16;6257713;27;126392;-61
2021/03/11 12:52:47;;;;;;;;;14.20;14.00;;;;;13.14;23.62;98259.72;6257424;27;128299;-61
2021/03/11 12:55:49;;;;;;;;;15.40;15.00;;;;;13.02;24.66;98249.00;6258249;27;125553;-61
2021/03/11 12:58:50;;;;;;;;;15.40;13.40;;;;;12.85;26.55;98240.94;6257947;27;127730;-61
2021/03/11 13:01:52;;;;;;;;;12.40;12.00;;;;;12.61;30.98;98266.59;6258375;27;128408;-61
2021/03/11 13:04:53;;;;;;;;;13.00;12.00;;;;;12.65;31.52;98275.84;6252152;27;126318;-61
2021/03/11 13:07:58;;;;;;;;;11.00;11.00;;;;;12.45;31.94;98243.94;6235455;27;126184;-61
2021/03/11 13:10:59;;;;;;;;;11.00;11.00;;;;;12.57;31.52;98258.16;6258580;27;125397;-61
2021/03/11 13:14:01;;;;;;;;;16.20;14.20;;;;;12.23;32.61;98199.00;6251572;27;126460;-61
2021/03/11 13:17:03;;;;;;;;;13.00;12.00;;;;;12.21;33.27;98234.41;6257721;27;126678;-61
2021/03/11 13:20:06;;;;;;;;;14.25;14.25;;;;;11.86;34.13;98234.69;6257753;27;125366;-61
2021/03/11 13:23:08;;;;;;;;;14.00;13.00;;;;;11.68;34.15;98234.88;6259015;27;127334;-61
2021/03/11 13:26:10;;;;;;;;;15.33;14.33;;;;;11.57;34.54;98220.41;6254129;27;125283;-61
2021/03/11 13:29:12;;;;;;;;;16.40;14.40;;;;;11.11;35.47;98207.13;6251217;27;126847;-61
2021/03/11 13:32:14;;;;;;;;;17.75;15.75;;;;;10.75;37.93;98232.63;6257136;27;126793;-61
2021/03/11 13:35:19;;;;;;;;;15.20;14.20;;;;;10.71;37.91;98226.84;6258385;27;124083;-61
2021/03/11 13:38:21;;;;;;;;;19.00;17.00;;;;;10.65;37.62;98217.03;6258590;27;124142;-61
2021/03/11 13:41:23;;;;;;;;;21.40;19.40;;;;;10.34;36.96;98180.56;6234028;27;126671;-61
2021/03/11 13:44:25;;;;;;;;;23.00;20.00;;;;;10.28;36.59;98184.19;6256145;27;126576;-61
2021/03/11 13:47:26;;;;;;;;;20.60;20.00;;;;;10.39;36.48;98193.31;6253051;27;126633;-60
2021/03/11 13:50:28;;;;;;;;;20.00;18.40;;;;;10.22;36.81;98184.31;6257935;27;126506;-61
2021/03/11 13:53:29;;;;;;;;;21.60;19.60;;;;;10.29;36.77;98166.97;6257741;27;128055;-61
2021/03/11 13:56:31;;;;;;;;;21.50;19.00;;;;;10.43;36.58;98156.75;6219677;27;127655;-61
2021/03/11 13:59:32;;;;;;;;;19.40;17.60;;;;;10.48;35.98;98135.28;6234899;27;126470;-61
2021/03/11 14:02:35;;;;;;;;;21.00;20.00;;;;;10.48;34.61;98067.91;6257431;27;127300;-62
2021/03/11 14:05:38;;;;;;;;;19.60;19.00;;;;;10.90;33.91;98116.94;6257041;27;127645;-62
2021/03/11 14:08:39;;;;;;;;;21.40;18.80;;;;;11.06;33.64;98115.34;6257891;27;127290;-62
2021/03/11 14:11:42;;;;;;;;;24.00;21.00;;;;;11.14;33.03;98088.75;6257553;27;125117;-62
2021/03/11 14:14:43;;;;;;;;;20.00;18.00;;;;;11.35;32.67;98071.03;6239420;27;125135;-62
2021/03/11 14:17:45;;;;;;;;;22.00;19.80;;;;;11.55;32.13;98063.25;6257401;27;125470;-62
2021/03/11 14:20:47;;;;;;;;;24.40;22.00;;;;;11.63;31.40;98068.22;6257011;27;126922;-62
2021/03/11 14:23:48;;;;;;;;;22.20;20.20;;;;;11.77;31.23;98074.13;6238223;27;125471;-63
2021/03/11 14:26:49;;;;;;;;;23.60;23.60;;;;;11.77;31.31;98084.13;6237224;27;126066;-60
2021/03/11 14:29:51;;;;;;;;;23.60;20.60;;;;;11.56;32.08;98073.00;6254277;27;126497;-62
2021/03/11 14:32:53;;;;;;;;;24.40;22.40;;;;;11.75;32.08;98060.06;6253540;27;126866;-62
2021/03/11 14:35:55;;;;;;;;;23.60;20.60;;;;;11.11;33.96;98010.22;6238795;27;125180;-62
2021/03/11 14:38:56;;;;;;;;;21.00;20.00;;;;;11.24;35.14;98059.25;6257733;27;126345;-62
2021/03/11 14:41:58;;;;;;;;;22.60;20.00;;;;;10.50;36.59;97982.28;6255360;27;126544;-62
2021/03/11 14:44:59;;;;;;;;;20.50;20.00;;;;;10.38;37.90;98020.03;6222421;27;125520;-62
2021/03/11 14:48:01;;;;;;;;;23.00;20.00;;;;;10.41;38.05;98006.09;6256690;27;127018;-62
2021/03/11 14:51:04;;;;;;;;;23.60;20.60;;;;;10.58;38.04;98006.13;6256712;27;126416;-62
2021/03/11 14:54:06;;;;;;;;;22.00;20.00;;;;;10.44;38.13;98015.56;6256047;27;126210;-62
2021/03/11 14:57:08;;;;;;;;;26.80;22.80;;;;;10.36;38.16;97997.91;6239394;27;125125;-62
2021/03/11 15:00:10;;;;;;;;;25.00;24.00;;;;;10.41;37.87;97991.78;6239271;27;126273;-62
2021/03/11 15:03:12;;;;;;;;;28.00;25.00;;;;;10.26;38.29;98005.00;6250443;27;126513;-61
2021/03/11 15:06:14;;;;;;;;;23.80;22.80;;;;;10.29;38.03;97975.69;6237985;27;126933;-62
2021/03/11 15:09:15;;;;;;;;;23.00;22.00;;;;;9.66;38.15;97895.06;6246274;27;127552;-62
2021/03/11 15:12:17;;;;;;;;;24.40;22.00;;;;;10.06;38.68;97977.66;6253391;27;127188;-62
2021/03/11 15:15:20;;;;;;;;;26.00;24.00;;;;;10.06;38.66;97950.72;6236906;27;127769;-62
2021/03/11 15:18:22;;;;;;;;;26.60;24.00;;;;;9.96;38.98;97948.66;6245821;27;125972;-61